createdAt,value
2018-03-02T00:01:20.860Z,-3.60
2018-03-02T00:03:49.213Z,-3.60
2018-03-02T00:06:16.821Z,-3.70
2018-03-02T00:08:45.110Z,-3.70
2018-03-02T00:11:13.442Z,-3.70
2018-03-02T00:13:41.070Z,-3.80
2018-03-02T00:16:09.414Z,-3.80
2018-03-02T00:18:37.003Z,-3.80
2018-03-02T00:21:04.590Z,-3.80
2018-03-02T00:23:33.039Z,-3.80
2018-03-02T00:26:00.709Z,-3.90
2018-03-02T00:28:28.300Z,-3.90
2018-03-02T00:30:56.133Z,-3.90
2018-03-02T00:33:23.712Z,-3.90
2018-03-02T00:35:51.297Z,-3.90
2018-03-02T00:38:18.832Z,-4.00
2018-03-02T00:40:46.389Z,-4.00
2018-03-02T00:43:13.938Z,-4.00
2018-03-02T00:45:42.260Z,-4.00
2018-03-02T00:48:09.803Z,-4.10
2018-03-02T00:50:37.371Z,-4.00
2018-03-02T00:53:04.998Z,-4.10
2018-03-02T00:55:33.377Z,-4.10
2018-03-02T00:58:01.828Z,-4.10
2018-03-02T01:00:30.382Z,-4.10
2018-03-02T01:02:58.694Z,-4.10
2018-03-02T01:05:26.262Z,-4.10
2018-03-02T01:07:53.790Z,-4.10
2018-03-02T01:10:22.114Z,-4.00
2018-03-02T01:12:49.722Z,-4.00
2018-03-02T01:15:17.271Z,-4.00
2018-03-02T01:17:44.900Z,-4.00
2018-03-02T01:20:13.247Z,-3.90
2018-03-02T01:22:40.808Z,-3.70
2018-03-02T01:25:08.437Z,-3.90
2018-03-02T01:27:36.119Z,-3.90
2018-03-02T01:30:04.964Z,-3.70
2018-03-02T01:32:32.608Z,-3.90
2018-03-02T01:35:01.071Z,-3.90
2018-03-02T01:37:28.641Z,-3.90
2018-03-02T01:39:56.207Z,-3.90
2018-03-02T01:42:23.781Z,-3.90
2018-03-02T01:44:52.129Z,-3.90
2018-03-02T01:47:19.699Z,-4.00
2018-03-02T01:49:47.236Z,-3.90
2018-03-02T01:52:14.801Z,-3.90
2018-03-02T01:54:42.345Z,-4.00
2018-03-02T01:57:09.905Z,-3.90
2018-03-02T01:59:37.453Z,-3.90
2018-03-02T02:02:05.046Z,-3.90
2018-03-02T02:04:32.626Z,-4.00
2018-03-02T02:07:00.217Z,-4.00
2018-03-02T02:09:27.766Z,-3.90
2018-03-02T02:11:55.318Z,-3.90
2018-03-02T02:14:22.862Z,-3.90
2018-03-02T02:16:50.427Z,-4.00
2018-03-02T02:19:17.990Z,-4.00
2018-03-02T02:21:45.524Z,-4.00
2018-03-02T02:24:13.101Z,-4.00
2018-03-02T02:26:40.630Z,-4.10
2018-03-02T02:29:08.941Z,-4.00
2018-03-02T02:31:37.258Z,-4.00
2018-03-02T02:34:04.871Z,-4.00
2018-03-02T02:36:32.448Z,-4.00
2018-03-02T02:39:00.809Z,-3.90
2018-03-02T02:41:28.383Z,-4.00
2018-03-02T02:43:55.937Z,-3.90
2018-03-02T02:46:23.482Z,-4.00
2018-03-02T02:48:51.835Z,-4.00
2018-03-02T02:51:19.377Z,-4.00
2018-03-02T02:53:47.983Z,-4.00
2018-03-02T02:56:15.530Z,-4.00
2018-03-02T02:58:43.114Z,-4.00
2018-03-02T03:01:10.667Z,-4.00
2018-03-02T03:03:38.236Z,-4.10
2018-03-02T03:06:05.883Z,-4.10
2018-03-02T03:08:34.276Z,-4.10
2018-03-02T03:11:03.393Z,-4.10
2018-03-02T03:13:31.000Z,-4.10
2018-03-02T03:15:58.590Z,-4.10
2018-03-02T03:18:26.165Z,-4.20
2018-03-02T03:20:53.718Z,-4.20
2018-03-02T03:23:21.353Z,-4.20
2018-03-02T03:25:49.641Z,-4.10
2018-03-02T03:28:17.180Z,-4.10
2018-03-02T03:30:44.724Z,-4.10
2018-03-02T03:33:12.249Z,-4.20
2018-03-02T03:35:39.814Z,-4.20
2018-03-02T03:38:07.385Z,-4.20
2018-03-02T03:40:35.019Z,-4.10
2018-03-02T03:43:02.774Z,-4.20
2018-03-02T03:45:30.349Z,-4.20
2018-03-02T03:47:57.929Z,-4.20
2018-03-02T03:50:25.490Z,-4.20
2018-03-02T03:52:53.034Z,-4.20
2018-03-02T03:55:21.370Z,-4.30
2018-03-02T03:57:48.925Z,-4.30
2018-03-02T04:00:16.473Z,-4.20
2018-03-02T04:02:44.002Z,-4.30
2018-03-02T04:05:11.548Z,-4.30
2018-03-02T04:07:39.125Z,-4.30
2018-03-02T04:10:06.706Z,-4.30
2018-03-02T04:12:34.368Z,-4.20
2018-03-02T04:15:02.096Z,-4.10
2018-03-02T04:17:30.462Z,-4.30
2018-03-02T04:19:58.106Z,-4.30
2018-03-02T04:22:25.965Z,-4.30
2018-03-02T04:24:53.548Z,-4.40
2018-03-02T04:27:21.088Z,-4.40
2018-03-02T04:29:48.638Z,-4.40
2018-03-02T04:32:16.187Z,-4.40
2018-03-02T04:34:43.716Z,-4.50
2018-03-02T04:37:11.730Z,-4.40
2018-03-02T04:39:39.316Z,-4.40
2018-03-02T04:42:06.908Z,-4.40
2018-03-02T04:44:34.654Z,-4.40
2018-03-02T04:47:02.310Z,-4.40
2018-03-02T04:49:29.855Z,-4.40
2018-03-02T04:51:57.432Z,-4.40
2018-03-02T04:54:25.025Z,-4.40
2018-03-02T04:56:53.406Z,-4.50
2018-03-02T04:59:21.727Z,-4.50
2018-03-02T05:01:50.093Z,-4.40
2018-03-02T05:04:18.403Z,-4.40
2018-03-02T05:06:45.947Z,-4.50
2018-03-02T05:09:13.498Z,-4.50
2018-03-02T05:11:41.037Z,-4.60
2018-03-02T05:14:08.589Z,-4.60
2018-03-02T05:16:36.277Z,-4.60
2018-03-02T05:19:03.904Z,-4.60
2018-03-02T05:21:32.472Z,-4.60
2018-03-02T05:23:59.996Z,-4.60
2018-03-02T05:26:28.299Z,-4.60
2018-03-02T05:28:55.825Z,-4.60
2018-03-02T05:31:23.372Z,-4.70
2018-03-02T05:33:50.913Z,-4.70
2018-03-02T05:36:18.476Z,-4.70
2018-03-02T05:38:46.759Z,-4.60
2018-03-02T05:41:15.152Z,-4.70
2018-03-02T05:43:43.700Z,-4.80
2018-03-02T05:46:11.433Z,-4.80
2018-03-02T05:48:39.165Z,-4.80
2018-03-02T05:51:07.419Z,-4.70
2018-03-02T05:53:35.200Z,-4.60
2018-03-02T05:56:04.586Z,-4.60
2018-03-02T05:58:33.004Z,-4.50
2018-03-02T06:01:00.553Z,-4.60
2018-03-02T06:03:28.123Z,-4.60
2018-03-02T06:05:56.408Z,-4.70
2018-03-02T06:08:24.767Z,-4.70
2018-03-02T06:10:52.305Z,-4.70
2018-03-02T06:13:19.856Z,-4.70
2018-03-02T06:15:47.389Z,-4.70
2018-03-02T06:18:14.944Z,-4.70
2018-03-02T06:20:42.464Z,-4.80
2018-03-02T06:23:10.792Z,-4.80
2018-03-02T06:25:38.397Z,-4.80
2018-03-02T06:28:06.038Z,-4.80
2018-03-02T06:30:33.837Z,-4.80
2018-03-02T06:33:02.373Z,-4.80
2018-03-02T06:35:29.985Z,-4.80
2018-03-02T06:37:57.718Z,-4.80
2018-03-02T06:40:26.006Z,-4.70
2018-03-02T06:42:54.323Z,-4.60
2018-03-02T06:45:21.869Z,-4.60
2018-03-02T06:47:50.193Z,-4.70
2018-03-02T06:50:17.725Z,-4.70
2018-03-02T06:52:46.104Z,-4.70
2018-03-02T06:55:13.649Z,-4.80
2018-03-02T06:57:41.217Z,-4.80
2018-03-02T07:00:08.805Z,-4.80
2018-03-02T07:02:36.409Z,-4.80
2018-03-02T07:05:04.923Z,-4.70
2018-03-02T07:07:33.557Z,-4.80
2018-03-02T07:10:01.873Z,-4.80
2018-03-02T07:12:30.350Z,-4.80
2018-03-02T07:14:58.016Z,-4.80
2018-03-02T07:17:25.679Z,-4.70
2018-03-02T07:19:53.293Z,-4.60
2018-03-02T07:22:20.826Z,-4.70
2018-03-02T07:24:48.385Z,-4.60
2018-03-02T07:27:15.913Z,-4.60
2018-03-02T07:29:44.225Z,-4.40
2018-03-02T07:32:11.774Z,-4.40
2018-03-02T07:34:39.455Z,-4.20
2018-03-02T07:37:07.030Z,-4.10
2018-03-02T07:39:35.478Z,-4.00
2018-03-02T07:42:03.644Z,-4.00
2018-03-02T07:44:31.788Z,-4.10
2018-03-02T07:46:59.486Z,-3.90
2018-03-02T07:49:27.076Z,-3.80
2018-03-02T07:51:54.622Z,-3.80
2018-03-02T07:54:22.964Z,-3.80
2018-03-02T07:56:50.525Z,-3.80
2018-03-02T07:59:18.093Z,-3.90
2018-03-02T08:01:45.628Z,-3.90
2018-03-02T08:04:13.931Z,-3.90
2018-03-02T08:06:41.448Z,-4.00
2018-03-02T08:09:09.117Z,-4.00
2018-03-02T08:11:36.753Z,-4.10
2018-03-02T08:14:04.474Z,-3.90
2018-03-02T08:16:32.221Z,-3.80
2018-03-02T08:18:59.812Z,-3.80
2018-03-02T08:21:27.348Z,-3.80
2018-03-02T08:23:54.995Z,-3.60
2018-03-02T08:26:23.466Z,-3.80
2018-03-02T08:28:51.078Z,-3.80
2018-03-02T08:31:19.408Z,-3.70
2018-03-02T08:33:46.924Z,-3.70
2018-03-02T08:36:14.492Z,-3.60
2018-03-02T08:38:42.008Z,-3.60
2018-03-02T08:41:09.664Z,-3.50
2018-03-02T08:43:38.174Z,-3.50
2018-03-02T08:46:05.978Z,-3.50
2018-03-02T08:48:34.550Z,-3.40
2018-03-02T08:51:03.313Z,-3.50
2018-03-02T08:53:31.250Z,-3.60
2018-03-02T08:55:58.901Z,-3.40
2018-03-02T08:58:26.499Z,-3.40
2018-03-02T09:00:54.138Z,-3.40
2018-03-02T09:03:21.698Z,-3.40
2018-03-02T09:05:49.997Z,-3.00
2018-03-02T09:08:18.290Z,-2.90
2018-03-02T09:10:46.601Z,-3.10
2018-03-02T09:13:14.136Z,-3.10
2018-03-02T09:15:41.694Z,-3.20
2018-03-02T09:18:09.327Z,-2.90
2018-03-02T09:20:37.046Z,-2.80
2018-03-02T09:23:04.737Z,-2.60
2018-03-02T09:25:32.546Z,-2.60
2018-03-02T09:28:00.119Z,-2.40
2018-03-02T09:30:27.692Z,-2.40
2018-03-02T09:32:55.478Z,-2.40
2018-03-02T09:35:23.086Z,-2.40
2018-03-02T09:37:51.421Z,-2.40
2018-03-02T09:40:18.953Z,-2.40
2018-03-02T09:42:46.559Z,-2.30
2018-03-02T09:45:14.057Z,-2.20
2018-03-02T09:47:41.597Z,-2.40
2018-03-02T09:50:10.075Z,-2.20
2018-03-02T09:52:37.793Z,-2.20
2018-03-02T09:55:05.510Z,-2.00
2018-03-02T09:57:33.303Z,-1.80
2018-03-02T10:00:00.901Z,-1.80
2018-03-02T10:02:28.496Z,-2.10
2018-03-02T10:04:56.094Z,-1.90
2018-03-02T10:07:23.712Z,-1.90
2018-03-02T10:09:51.267Z,-1.60
2018-03-02T10:12:18.836Z,-1.70
2018-03-02T10:14:46.357Z,-1.70
2018-03-02T10:17:13.917Z,-1.50
2018-03-02T10:19:41.469Z,-1.60
2018-03-02T10:22:10.163Z,-1.30
2018-03-02T10:24:38.558Z,-1.10
2018-03-02T10:27:06.235Z,-1.10
2018-03-02T10:29:34.781Z,-1.00
2018-03-02T10:32:02.930Z,-1.00
2018-03-02T10:34:30.826Z,-1.00
2018-03-02T10:36:58.385Z,-0.80
2018-03-02T10:39:25.980Z,-0.80
2018-03-02T10:41:53.502Z,-0.70
2018-03-02T10:44:21.832Z,-0.60
2018-03-02T10:46:49.356Z,-0.60
2018-03-02T10:49:16.932Z,-0.60
2018-03-02T10:51:45.279Z,-0.10
2018-03-02T10:54:12.838Z,-0.10
2018-03-02T10:56:40.401Z,0.00
2018-03-02T10:59:07.964Z,-0.10
2018-03-02T11:01:41.274Z,-0.20
2018-03-02T11:04:08.935Z,-0.20
2018-03-02T11:06:37.469Z,0.10
2018-03-02T11:09:05.252Z,0.20
2018-03-02T11:11:32.849Z,0.20
2018-03-02T11:14:00.381Z,0.40
2018-03-02T11:16:27.902Z,0.50
2018-03-02T11:18:55.471Z,0.30
2018-03-02T11:21:23.780Z,0.00
2018-03-02T11:23:51.345Z,0.00
2018-03-02T11:26:18.870Z,0.10
2018-03-02T11:28:46.421Z,0.30
2018-03-02T11:31:13.948Z,0.40
2018-03-02T11:33:41.577Z,0.30
2018-03-02T11:36:09.216Z,0.40
2018-03-02T11:38:37.604Z,1.00
2018-03-02T11:41:05.815Z,1.00
2018-03-02T11:43:33.371Z,0.80
2018-03-02T11:46:01.681Z,1.00
2018-03-02T11:48:29.218Z,1.00
2018-03-02T11:50:56.779Z,0.90
2018-03-02T11:53:25.149Z,1.20
2018-03-02T11:55:52.678Z,1.10
2018-03-02T11:58:20.231Z,1.50
2018-03-02T12:00:47.745Z,1.50
2018-03-02T12:03:15.301Z,1.60
2018-03-02T12:05:42.811Z,1.80
2018-03-02T12:08:10.402Z,1.40
2018-03-02T12:10:38.761Z,1.40
2018-03-02T12:13:06.362Z,1.30
2018-03-02T12:15:33.898Z,1.10
2018-03-02T12:18:01.529Z,0.90
2018-03-02T12:20:29.041Z,1.00
2018-03-02T12:22:56.589Z,1.20
2018-03-02T12:25:24.935Z,1.40
2018-03-02T12:27:52.464Z,1.30
2018-03-02T12:30:20.022Z,1.00
2018-03-02T12:32:48.306Z,1.10
2018-03-02T12:35:16.620Z,1.10
2018-03-02T12:37:44.225Z,1.10
2018-03-02T12:40:12.027Z,1.20
2018-03-02T12:42:39.634Z,1.20
2018-03-02T12:45:08.052Z,1.30
2018-03-02T12:47:35.639Z,1.30
2018-03-02T12:50:03.956Z,1.50
2018-03-02T12:52:32.271Z,1.40
2018-03-02T12:55:00.593Z,1.40
2018-03-02T12:57:28.123Z,1.30
2018-03-02T12:59:55.730Z,1.50
2018-03-02T13:02:23.261Z,1.30
2018-03-02T13:04:50.805Z,1.10
2018-03-02T13:07:18.316Z,1.40
2018-03-02T13:09:46.620Z,1.30
2018-03-02T13:12:14.924Z,1.40
2018-03-02T13:14:42.465Z,1.40
2018-03-02T13:17:10.753Z,1.40
2018-03-02T13:19:39.117Z,1.30
2018-03-02T13:22:06.824Z,1.30
2018-03-02T13:24:34.426Z,1.10
2018-03-02T13:27:14.049Z,1.10
2018-03-02T13:29:42.417Z,1.00
2018-03-02T13:32:10.757Z,1.20
2018-03-02T13:34:50.071Z,1.20
2018-03-02T13:37:17.633Z,1.20
2018-03-02T13:39:57.100Z,1.30
2018-03-02T13:42:24.636Z,1.40
2018-03-02T13:44:52.148Z,1.30
2018-03-02T13:47:20.457Z,1.00
2018-03-02T13:49:59.927Z,1.00
2018-03-02T13:52:27.525Z,0.90
2018-03-02T13:54:55.112Z,1.00
2018-03-02T13:57:34.649Z,1.10
2018-03-02T14:00:02.173Z,1.00
2018-03-02T14:02:42.401Z,1.00
2018-03-02T14:05:09.984Z,0.90
2018-03-02T14:07:38.354Z,1.00
2018-03-02T14:10:05.935Z,1.00
2018-03-02T14:12:34.288Z,0.90
2018-03-02T14:15:01.811Z,0.90
2018-03-02T14:17:29.373Z,1.10
2018-03-02T14:19:56.884Z,0.90
2018-03-02T14:22:25.215Z,0.80
2018-03-02T14:24:52.741Z,0.80
2018-03-02T14:27:21.064Z,1.00
2018-03-02T14:29:48.589Z,0.90
2018-03-02T14:32:16.990Z,1.10
2018-03-02T14:34:44.513Z,1.20
2018-03-02T14:37:12.092Z,1.10
2018-03-02T14:39:39.634Z,1.30
2018-03-02T14:42:07.214Z,1.30
2018-03-02T14:44:34.837Z,1.20
2018-03-02T14:47:03.188Z,1.30
2018-03-02T14:49:30.726Z,1.20
2018-03-02T14:51:59.040Z,1.10
2018-03-02T14:54:26.607Z,1.10
2018-03-02T14:56:54.156Z,1.10
2018-03-02T14:59:22.460Z,0.80
2018-03-02T15:01:49.977Z,0.80
2018-03-02T15:04:17.535Z,0.80
2018-03-02T15:06:45.048Z,0.90
2018-03-02T15:09:12.621Z,0.90
2018-03-02T15:11:47.774Z,0.90
2018-03-02T15:14:15.323Z,0.60
2018-03-02T15:16:42.840Z,0.60
2018-03-02T15:19:11.176Z,0.70
2018-03-02T15:21:38.727Z,0.70
2018-03-02T15:24:06.362Z,0.80
2018-03-02T15:26:33.988Z,0.70
2018-03-02T15:29:01.601Z,0.90
2018-03-02T15:31:29.880Z,1.00
2018-03-02T15:33:57.421Z,0.90
2018-03-02T15:36:24.996Z,1.00
2018-03-02T15:38:52.575Z,1.00
2018-03-02T15:41:20.107Z,1.00
2018-03-02T15:43:47.658Z,1.00
2018-03-02T15:46:15.947Z,0.90
2018-03-02T15:48:45.006Z,0.90
2018-03-02T15:51:12.544Z,0.90
2018-03-02T15:53:40.874Z,0.90
2018-03-02T15:56:08.482Z,0.90
2018-03-02T15:58:36.131Z,0.80
2018-03-02T16:01:04.492Z,0.70
2018-03-02T16:03:32.059Z,0.70
2018-03-02T16:05:59.585Z,0.60
2018-03-02T16:08:27.110Z,0.60
2018-03-02T16:10:55.465Z,0.60
2018-03-02T16:13:23.762Z,0.60
2018-03-02T16:15:52.070Z,0.50
2018-03-02T16:18:19.589Z,0.50
2018-03-02T16:20:47.154Z,0.40
2018-03-02T16:23:14.666Z,0.40
2018-03-02T16:25:42.977Z,0.40
2018-03-02T16:28:10.536Z,0.40
2018-03-02T16:30:38.352Z,0.50
2018-03-02T16:33:06.383Z,0.50
2018-03-02T16:35:34.013Z,0.40
2018-03-02T16:38:01.548Z,0.30
2018-03-02T16:40:29.104Z,0.20
2018-03-02T16:42:56.625Z,0.20
2018-03-02T16:45:24.160Z,0.20
2018-03-02T16:47:51.677Z,0.20
2018-03-02T16:50:19.205Z,0.20
2018-03-02T16:52:46.734Z,0.30
2018-03-02T16:55:14.319Z,0.20
2018-03-02T16:57:42.617Z,0.30
2018-03-02T17:00:10.203Z,0.20
2018-03-02T17:02:37.862Z,0.30
2018-03-02T17:05:06.350Z,0.20
2018-03-02T17:07:33.888Z,0.20
2018-03-02T17:10:01.429Z,0.30
2018-03-02T17:12:28.975Z,0.20
2018-03-02T17:14:57.281Z,0.30
2018-03-02T17:17:24.793Z,0.20
2018-03-02T17:19:52.325Z,0.20
2018-03-02T17:22:19.865Z,0.20
2018-03-02T17:24:47.417Z,0.20
2018-03-02T17:27:15.021Z,0.10
2018-03-02T17:29:43.406Z,0.10
2018-03-02T17:32:11.765Z,0.10
2018-03-02T17:34:39.426Z,0.10
2018-03-02T17:37:07.082Z,0.20
2018-03-02T17:39:34.828Z,0.10
2018-03-02T17:42:02.501Z,0.10
2018-03-02T17:44:30.161Z,0.00
2018-03-02T17:46:57.776Z,0.00
2018-03-02T17:49:25.324Z,0.10
2018-03-02T17:51:53.768Z,0.10
2018-03-02T17:54:21.327Z,0.10
2018-03-02T17:56:49.113Z,0.10
2018-03-02T17:59:16.780Z,0.10
2018-03-02T18:01:44.404Z,0.10
2018-03-02T18:04:11.992Z,0.00
2018-03-02T18:06:39.782Z,0.00
2018-03-02T18:09:07.441Z,0.00
2018-03-02T18:11:35.294Z,0.10
2018-03-02T18:14:04.386Z,0.20
2018-03-02T18:16:31.949Z,0.20
2018-03-02T18:18:59.555Z,0.10
2018-03-02T18:21:27.088Z,0.10
2018-03-02T18:23:54.635Z,0.10
2018-03-02T18:26:22.197Z,0.20
2018-03-02T18:28:50.484Z,0.10
2018-03-02T18:31:18.799Z,0.20
2018-03-02T18:33:46.398Z,0.20
2018-03-02T18:36:14.017Z,0.10
2018-03-02T18:38:41.656Z,0.10
2018-03-02T18:41:09.382Z,0.10
2018-03-02T18:43:37.191Z,0.00
2018-03-02T18:46:04.777Z,-0.10
2018-03-02T18:48:32.400Z,-0.20
2018-03-02T18:51:00.082Z,-0.30
2018-03-02T18:53:27.660Z,-0.30
2018-03-02T18:55:55.182Z,-0.40
2018-03-02T18:58:23.525Z,-0.40
2018-03-02T19:00:51.048Z,-0.40
2018-03-02T19:03:18.640Z,-0.40
2018-03-02T19:05:46.164Z,-0.40
2018-03-02T19:08:13.795Z,-0.40
2018-03-02T19:10:42.119Z,-0.40
2018-03-02T19:13:09.682Z,-0.40
2018-03-02T19:15:37.270Z,-0.40
2018-03-02T19:18:05.407Z,-0.50
2018-03-02T19:20:32.967Z,-0.60
2018-03-02T19:23:00.521Z,-0.50
2018-03-02T19:25:28.913Z,-0.50
2018-03-02T19:27:56.488Z,-0.50
2018-03-02T19:30:24.018Z,-0.50
2018-03-02T19:32:51.721Z,-0.60
2018-03-02T19:35:19.342Z,-0.60
2018-03-02T19:37:47.649Z,-0.50
2018-03-02T19:40:16.486Z,-0.50
2018-03-02T19:42:44.176Z,-0.60
2018-03-02T19:45:11.763Z,-0.60
2018-03-02T19:47:40.224Z,-0.70
2018-03-02T19:50:07.847Z,-0.70
2018-03-02T19:52:35.734Z,-0.60
2018-03-02T19:55:03.566Z,-0.60
2018-03-02T19:57:31.093Z,-0.50
2018-03-02T20:00:00.184Z,-0.50
2018-03-02T20:02:28.497Z,-0.50
2018-03-02T20:04:56.098Z,-0.50
2018-03-02T20:07:23.824Z,-0.60
2018-03-02T20:09:51.406Z,-0.50
2018-03-02T20:12:20.888Z,-0.50
2018-03-02T20:14:48.476Z,-0.60
2018-03-02T20:17:16.077Z,-0.50
2018-03-02T20:19:46.638Z,-0.50
2018-03-02T20:22:14.166Z,-0.50
2018-03-02T20:24:42.526Z,-0.60
2018-03-02T20:27:10.062Z,-0.60
2018-03-02T20:29:37.746Z,-0.70
2018-03-02T20:32:05.324Z,-0.60
2018-03-02T20:34:32.913Z,-0.70
2018-03-02T20:37:00.432Z,-0.80
2018-03-02T20:39:28.740Z,-0.70
2018-03-02T20:41:56.262Z,-0.70
2018-03-02T20:44:23.815Z,-0.60
2018-03-02T20:46:51.385Z,-0.70
2018-03-02T20:49:19.086Z,-0.70
2018-03-02T20:51:47.443Z,-0.70
2018-03-02T20:54:15.311Z,-0.60
2018-03-02T20:56:43.758Z,-0.70
2018-03-02T20:59:11.334Z,-0.70
2018-03-02T21:01:38.963Z,-0.70
2018-03-02T21:04:06.561Z,-0.70
2018-03-02T21:06:34.125Z,-0.60
2018-03-02T21:09:01.676Z,-0.60
2018-03-02T21:11:29.205Z,-0.60
2018-03-02T21:13:57.507Z,-0.60
2018-03-02T21:16:25.796Z,-0.70
2018-03-02T21:18:53.336Z,-0.70
2018-03-02T21:21:20.857Z,-0.60
2018-03-02T21:23:48.389Z,-0.60
2018-03-02T21:26:15.983Z,-0.60
2018-03-02T21:28:44.285Z,-0.60
2018-03-02T21:31:11.864Z,-0.60
2018-03-02T21:33:40.242Z,-0.60
2018-03-02T21:36:07.898Z,-0.60
2018-03-02T21:38:35.489Z,-0.70
2018-03-02T21:41:03.062Z,-0.70
2018-03-02T21:43:30.602Z,-0.70
2018-03-02T21:45:58.199Z,-0.70
2018-03-02T21:48:25.772Z,-0.70
2018-03-02T21:50:54.068Z,-0.70
2018-03-02T21:53:22.349Z,-0.80
2018-03-02T21:55:50.685Z,-0.80
2018-03-02T21:58:18.253Z,-0.80
2018-03-02T22:00:45.797Z,-0.70
2018-03-02T22:03:13.376Z,-0.70
2018-03-02T22:05:40.983Z,-0.60
2018-03-02T22:08:08.549Z,-0.60
2018-03-02T22:10:36.192Z,-0.60
2018-03-02T22:13:03.718Z,-0.60
2018-03-02T22:15:31.325Z,-0.60
2018-03-02T22:17:58.856Z,-0.50
2018-03-02T22:20:26.451Z,-0.50
2018-03-02T22:22:54.758Z,-0.60
2018-03-02T22:25:26.425Z,-0.50
2018-03-02T22:27:54.740Z,-0.50
2018-03-02T22:30:22.318Z,-0.50
2018-03-02T22:32:49.851Z,-0.50
2018-03-02T22:35:20.129Z,-0.50
2018-03-02T22:37:47.851Z,-0.50
2018-03-02T22:40:16.253Z,-0.50
2018-03-02T22:42:44.619Z,-0.50
2018-03-02T22:45:12.158Z,-0.50
2018-03-02T22:47:39.744Z,-0.50
2018-03-02T22:50:07.317Z,-0.40
2018-03-02T22:52:34.906Z,-0.50
2018-03-02T22:55:02.459Z,-0.40
2018-03-02T22:57:30.038Z,-0.40
2018-03-02T22:59:57.834Z,-0.30
2018-03-02T23:02:25.454Z,-0.30
2018-03-02T23:04:53.000Z,-0.40
2018-03-02T23:07:20.600Z,-0.40
2018-03-02T23:09:48.158Z,-0.40
2018-03-02T23:12:16.492Z,-0.40
2018-03-02T23:14:44.028Z,-0.40
2018-03-02T23:17:12.381Z,-0.30
2018-03-02T23:19:39.964Z,-0.30
2018-03-02T23:22:08.461Z,-0.30
2018-03-02T23:24:36.208Z,-0.30
2018-03-02T23:27:03.782Z,-0.30
2018-03-02T23:29:31.323Z,-0.30
2018-03-02T23:31:58.882Z,-0.30
2018-03-02T23:34:26.413Z,-0.40
2018-03-02T23:36:53.954Z,-0.50
2018-03-02T23:39:21.494Z,-0.60
2018-03-02T23:41:49.050Z,-0.60
2018-03-02T23:44:17.373Z,-0.50
2018-03-02T23:46:44.942Z,-0.50
2018-03-02T23:49:12.511Z,-0.40
2018-03-02T23:51:40.062Z,-0.40
2018-03-02T23:54:08.477Z,-0.50
2018-03-02T23:56:39.868Z,-0.50
2018-03-02T23:59:07.509Z,-0.50
